| time (UTC) | temp F | wind direction | speed MPH | gust MPH | rain 1hr in | rain 24hr in | rain mn in | humidity % | barometer mb |
| 20260509205005 | 45 | 0 | 0.0 | 0.0 | 0.00 | 0.00 | 0.00 | 59 | 1018.0 |
| 20260509204005 | 46 | 0 | 0.0 | 0.0 | 0.00 | 0.00 | 0.00 | 59 | 1019.0 |
| 20260509203503 | 46 | 0 | 0.0 | 0.0 | 0.00 | 0.00 | 0.00 | 58 | 1019.0 |
| 20260509202504 | 47 | 0 | 0.0 | 0.0 | 0.00 | 0.00 | 0.00 | 53 | 1019.0 |
| 20260509202005 | 47 | 0 | 0.0 | 0.0 | 0.00 | 0.00 | 0.00 | 52 | 1019.0 |
| 20260509201504 | 48 | 0 | 0.0 | 0.0 | 0.00 | 0.00 | 0.00 | 51 | 1019.0 |
| 20260509200504 | 48 | 0 | 0.0 | 0.0 | 0.00 | 0.00 | 0.00 | 51 | 1019.0 |
| 20260509200005 | 48 | 0 | 0.0 | 0.0 | 0.00 | 0.00 | 0.00 | 50 | 1019.0 |
| 20260509195503 | 49 | 0 | 0.0 | 0.0 | 0.00 | 0.00 | 0.00 | 50 | 1019.0 |
| 20260509195005 | 49 | 0 | 0.0 | 0.0 | 0.00 | 0.00 | 0.00 | 50 | 1019.0 |
| 20260509194503 | 49 | 0 | 0.0 | 0.0 | 0.00 | 0.00 | 0.00 | 50 | 1019.0 |
| 20260509194004 | 49 | 0 | 0.0 | 0.0 | 0.00 | 0.00 | 0.00 | 50 | 1019.0 |
| 20260509193504 | 50 | 0 | 0.0 | 0.0 | 0.00 | 0.00 | 0.00 | 50 | 1019.0 |
| 20260509193005 | 50 | 0 | 0.0 | 0.0 | 0.00 | 0.00 | 0.00 | 50 | 1019.0 |
| 20260509192504 | 51 | 0 | 0.0 | 0.0 | 0.00 | 0.00 | 0.00 | 50 | 1019.0 |
| 20260509192004 | 51 | 0 | 0.0 | 0.0 | 0.00 | 0.00 | 0.00 | 50 | 1019.0 |
| 20260509191505 | 51 | 0 | 0.0 | 0.0 | 0.00 | 0.00 | 0.00 | 49 | 1019.0 |
| 20260509191005 | 51 | 0 | 0.0 | 0.0 | 0.00 | 0.00 | 0.00 | 49 | 1018.0 |
| 20260509190504 | 52 | 0 | 0.0 | 0.0 | 0.00 | 0.00 | 0.00 | 49 | 1018.0 |
| 20260509190005 | 52 | 0 | 0.0 | 0.0 | 0.00 | 0.00 | 0.00 | 49 | 1018.0 |
| 20260509185503 | 53 | 0 | 0.0 | 0.0 | 0.00 | 0.00 | 0.00 | 48 | 1018.0 |
| 20260509185005 | 53 | 0 | 0.0 | 0.0 | 0.00 | 0.00 | 0.00 | 48 | 1018.0 |
| 20260509184505 | 53 | 0 | 0.0 | 0.0 | 0.00 | 0.00 | 0.00 | 48 | 1018.0 |
| 20260509184005 | 54 | 310 | 1.0 | 5.0 | 0.00 | 0.00 | 0.00 | 47 | 1018.0 |
| 20260509183503 | 54 | 315 | 2.0 | 5.0 | 0.00 | 0.00 | 0.00 | 47 | 1018.0 |
| 20260509183005 | 54 | 321 | 1.0 | 5.0 | 0.00 | 0.00 | 0.00 | 47 | 1018.0 |
| 20260509182503 | 54 | 314 | 1.0 | 5.0 | 0.00 | 0.00 | 0.00 | 47 | 1018.0 |
| 20260509181504 | 55 | 312 | 1.0 | 5.0 | 0.00 | 0.00 | 0.00 | 47 | 1018.0 |
| 20260509181005 | 55 | 304 | 0.0 | 5.0 | 0.00 | 0.00 | 0.00 | 46 | 1018.0 |
| 20260509180504 | 55 | 311 | 1.0 | 5.0 | 0.00 | 0.00 | 0.00 | 46 | 1018.0 |
| 20260509180005 | 56 | 320 | 3.0 | 6.0 | 0.00 | 0.00 | 0.00 | 46 | 1018.0 |
| 20260509175504 | 56 | 323 | 3.0 | 6.0 | 0.00 | 0.00 | 0.00 | 44 | 1018.0 |
| 20260509175005 | 56 | 318 | 3.0 | 8.0 | 0.00 | 0.00 | 0.00 | 44 | 1018.0 |
| 20260509174005 | 57 | 319 | 7.0 | 10.0 | 0.00 | 0.00 | 0.00 | 43 | 1018.0 |
| 20260509173504 | 57 | 315 | 6.0 | 10.0 | 0.00 | 0.00 | 0.00 | 43 | 1018.0 |
| 20260509173004 | 58 | 317 | 6.0 | 9.0 | 0.00 | 0.00 | 0.00 | 42 | 1018.0 |
| 20260509172505 | 58 | 324 | 6.0 | 9.0 | 0.00 | 0.00 | 0.00 | 41 | 1018.0 |
| 20260509172004 | 58 | 323 | 7.0 | 11.0 | 0.00 | 0.00 | 0.00 | 41 | 1018.0 |
| 20260509171504 | 59 | 319 | 6.0 | 11.0 | 0.00 | 0.00 | 0.00 | 41 | 1018.0 |
| 20260509171005 | 59 | 310 | 3.0 | 11.0 | 0.00 | 0.00 | 0.00 | 40 | 1019.0 |
| 20260509170504 | 59 | 278 | 2.0 | 6.0 | 0.00 | 0.00 | 0.00 | 37 | 1019.0 |
| 20260509165504 | 60 | 271 | 1.0 | 6.0 | 0.00 | 0.00 | 0.00 | 37 | 1019.0 |
| 20260509165004 | 60 | 282 | 2.0 | 7.0 | 0.00 | 0.00 | 0.00 | 36 | 1019.0 |
| 20260509164504 | 60 | 283 | 2.0 | 7.0 | 0.00 | 0.00 | 0.00 | 37 | 1019.0 |
| 20260509163004 | 60 | 275 | 3.0 | 8.0 | 0.00 | 0.00 | 0.00 | 36 | 1019.0 |
| 20260509162504 | 61 | 275 | 1.0 | 6.0 | 0.00 | 0.00 | 0.00 | 36 | 1019.0 |
| 20260509161503 | 61 | 280 | 1.0 | 7.0 | 0.00 | 0.00 | 0.00 | 36 | 1019.0 |
| 20260509161005 | 61 | 283 | 1.0 | 7.0 | 0.00 | 0.00 | 0.00 | 36 | 1019.0 |
| 20260509160005 | 60 | 260 | 3.0 | 10.0 | 0.00 | 0.00 | 0.00 | 36 | 1019.0 |
| 20260509155503 | 61 | 265 | 3.0 | 8.0 | 0.00 | 0.00 | 0.00 | 37 | 1019.0 |
| 20260509154503 | 61 | 277 | 3.0 | 9.0 | 0.00 | 0.00 | 0.00 | 36 | 1019.0 |
| 20260509154005 | 61 | 272 | 1.0 | 6.0 | 0.00 | 0.00 | 0.00 | 37 | 1020.0 |
| 20260509153503 | 61 | 276 | 2.0 | 8.0 | 0.00 | 0.00 | 0.00 | 37 | 1020.0 |
| 20260509153005 | 61 | 280 | 3.0 | 9.0 | 0.00 | 0.00 | 0.00 | 37 | 1020.0 |
| 20260509152503 | 61 | 260 | 4.0 | 9.0 | 0.00 | 0.00 | 0.00 | 37 | 1020.0 |
| 20260509152005 | 61 | 251 | 4.0 | 7.0 | 0.00 | 0.00 | 0.00 | 37 | 1020.0 |
| 20260509151503 | 61 | 266 | 3.0 | 6.0 | 0.00 | 0.00 | 0.00 | 38 | 1020.0 |
| 20260509150503 | 60 | 263 | 3.0 | 7.0 | 0.00 | 0.00 | 0.00 | 37 | 1020.0 |
| 20260509150006 | 60 | 280 | 2.0 | 7.0 | 0.00 | 0.00 | 0.00 | 38 | 1020.0 |
| 20260509145005 | 60 | 269 | 3.0 | 8.0 | 0.00 | 0.00 | 0.00 | 38 | 1021.0 |
| 20260509144503 | 60 | 287 | 4.0 | 10.0 | 0.00 | 0.00 | 0.00 | 38 | 1021.0 |
| 20260509144005 | 61 | 282 | 3.0 | 10.0 | 0.00 | 0.00 | 0.00 | 39 | 1020.0 |
| 20260509143503 | 61 | 259 | 3.0 | 10.0 | 0.00 | 0.00 | 0.00 | 39 | 1020.0 |
| 20260509143005 | 61 | 250 | 3.0 | 10.0 | 0.00 | 0.00 | 0.00 | 39 | 1020.0 |
| 20260509142503 | 60 | 268 | 3.0 | 7.0 | 0.00 | 0.00 | 0.00 | 39 | 1019.0 |
| 20260509142005 | 60 | 269 | 4.0 | 8.0 | 0.00 | 0.00 | 0.00 | 40 | 1019.0 |
| 20260509141005 | 61 | 277 | 5.0 | 11.0 | 0.00 | 0.00 | 0.00 | 40 | 1020.0 |
| 20260509140006 | 61 | 242 | 4.0 | 8.0 | 0.00 | 0.00 | 0.00 | 40 | 1020.0 |
| 20260509135503 | 61 | 264 | 5.0 | 8.0 | 0.00 | 0.00 | 0.00 | 40 | 1020.0 |
| 20260509135005 | 61 | 271 | 4.0 | 9.0 | 0.00 | 0.00 | 0.00 | 39 | 1020.0 |
| 20260509134503 | 61 | 242 | 3.0 | 9.0 | 0.00 | 0.00 | 0.00 | 41 | 1020.0 |
| 20260509134005 | 61 | 236 | 3.0 | 6.0 | 0.00 | 0.00 | 0.00 | 40 | 1020.0 |
| 20260509133503 | 61 | 235 | 3.0 | 8.0 | 0.00 | 0.00 | 0.00 | 41 | 1020.0 |
| 20260509133005 | 61 | 243 | 3.0 | 8.0 | 0.00 | 0.00 | 0.00 | 41 | 1020.0 |
| 20260509132503 | 61 | 258 | 3.0 | 6.0 | 0.00 | 0.00 | 0.00 | 41 | 1021.0 |
| 20260509132005 | 61 | 265 | 3.0 | 6.0 | 0.00 | 0.00 | 0.00 | 42 | 1021.0 |
| 20260509131504 | 61 | 257 | 4.0 | 9.0 | 0.00 | 0.00 | 0.00 | 40 | 1021.0 |
| 20260509131004 | 61 | 259 | 4.0 | 9.0 | 0.00 | 0.00 | 0.00 | 42 | 1021.0 |
| 20260509130505 | 61 | 268 | 3.0 | 8.0 | 0.00 | 0.00 | 0.00 | 40 | 1021.0 |
| 20260509130005 | 61 | 241 | 3.0 | 8.0 | 0.00 | 0.00 | 0.00 | 41 | 1021.0 |
| 20260509125504 | 61 | 239 | 4.0 | 8.0 | 0.00 | 0.00 | 0.00 | 43 | 1022.0 |
| 20260509125005 | 61 | 254 | 3.0 | 8.0 | 0.00 | 0.00 | 0.00 | 44 | 1022.0 |
| 20260509124503 | 61 | 271 | 4.0 | 10.0 | 0.00 | 0.00 | 0.00 | 43 | 1022.0 |
| 20260509124005 | 61 | 271 | 4.0 | 10.0 | 0.00 | 0.00 | 0.00 | 43 | 1022.0 |
| 20260509123504 | 61 | 285 | 4.0 | 8.0 | 0.00 | 0.00 | 0.00 | 42 | 1022.0 |
| 20260509123005 | 61 | 283 | 3.0 | 8.0 | 0.00 | 0.00 | 0.00 | 42 | 1022.0 |
| 20260509122505 | 61 | 270 | 3.0 | 8.0 | 0.00 | 0.00 | 0.00 | 43 | 1022.0 |
| 20260509122006 | 61 | 281 | 3.0 | 8.0 | 0.00 | 0.00 | 0.00 | 47 | 1022.0 |
| 20260509121504 | 61 | 259 | 4.0 | 7.0 | 0.00 | 0.00 | 0.00 | 48 | 1022.0 |
| 20260509121005 | 61 | 243 | 3.0 | 7.0 | 0.00 | 0.00 | 0.00 | 49 | 1022.0 |
| 20260509120503 | 61 | 242 | 3.0 | 8.0 | 0.00 | 0.00 | 0.00 | 50 | 1022.0 |
| 20260509115504 | 61 | 236 | 4.0 | 9.0 | 0.00 | 0.00 | 0.00 | 51 | 1022.0 |
| 20260509115005 | 61 | 234 | 3.0 | 9.0 | 0.00 | 0.00 | 0.00 | 49 | 1022.0 |
| 20260509114503 | 61 | 231 | 3.0 | 9.0 | 0.00 | 0.00 | 0.00 | 51 | 1022.0 |
| 20260509114005 | 61 | 255 | 3.0 | 7.0 | 0.00 | 0.00 | 0.00 | 49 | 1022.0 |
| 20260509112504 | 61 | 261 | 3.0 | 10.0 | 0.00 | 0.00 | 0.00 | 50 | 1022.0 |
| 20260509112005 | 61 | 249 | 3.0 | 8.0 | 0.00 | 0.00 | 0.00 | 49 | 1022.0 |
| 20260509111503 | 61 | 257 | 3.0 | 8.0 | 0.00 | 0.00 | 0.00 | 51 | 1022.0 |
| 20260509110503 | 61 | 286 | 3.0 | 7.0 | 0.00 | 0.00 | 0.00 | 49 | 1021.0 |
| 20260509110004 | 61 | 283 | 4.0 | 8.0 | 0.00 | 0.00 | 0.00 | 47 | 1021.0 |
| 20260509105503 | 61 | 264 | 4.0 | 8.0 | 0.00 | 0.00 | 0.00 | 46 | 1022.0 |
| 20260509104503 | 60 | 230 | 4.0 | 8.0 | 0.00 | 0.00 | 0.00 | 45 | 1022.0 |
| 20260509104005 | 61 | 225 | 3.0 | 8.0 | 0.00 | 0.00 | 0.00 | 44 | 1022.0 |
| 20260509103505 | 60 | 258 | 3.0 | 6.0 | 0.00 | 0.00 | 0.00 | 46 | 1022.0 |
| 20260509103005 | 60 | 257 | 2.0 | 6.0 | 0.00 | 0.00 | 0.00 | 44 | 1022.0 |
| 20260509102503 | 61 | 99 | 2.0 | 8.0 | 0.00 | 0.00 | 0.00 | 38 | 1022.0 |
| 20260509101503 | 61 | 125 | 4.0 | 12.0 | 0.00 | 0.00 | 0.00 | 38 | 1022.0 |
| 20260509100503 | 61 | 85 | 7.0 | 11.0 | 0.00 | 0.00 | 0.00 | 39 | 1022.0 |
| 20260509095005 | 61 | 96 | 8.0 | 12.0 | 0.00 | 0.00 | 0.00 | 39 | 1022.0 |
| 20260509094504 | 61 | 98 | 8.0 | 12.0 | 0.00 | 0.00 | 0.00 | 40 | 1022.0 |
| 20260509093503 | 60 | 95 | 7.0 | 13.0 | 0.00 | 0.00 | 0.00 | 41 | 1022.0 |
| 20260509093004 | 60 | 88 | 6.0 | 11.0 | 0.00 | 0.00 | 0.00 | 42 | 1022.0 |
| 20260509092504 | 60 | 92 | 7.0 | 11.0 | 0.00 | 0.00 | 0.00 | 43 | 1022.0 |
| 20260509092005 | 60 | 93 | 8.0 | 12.0 | 0.00 | 0.00 | 0.00 | 42 | 1022.0 |
| 20260509091503 | 59 | 93 | 7.0 | 12.0 | 0.00 | 0.00 | 0.00 | 44 | 1022.0 |
| 20260509091005 | 58 | 69 | 4.0 | 12.0 | 0.00 | 0.00 | 0.00 | 45 | 1023.0 |
| 20260509090505 | 58 | 34 | 2.0 | 6.0 | 0.00 | 0.00 | 0.00 | 44 | 1023.0 |
| 20260509090005 | 58 | 120 | 2.0 | 5.0 | 0.00 | 0.00 | 0.00 | 44 | 1023.0 |
| 20260509085005 | 58 | 81 | 5.0 | 8.0 | 0.00 | 0.00 | 0.00 | 46 | 1023.0 |
| 20260509084503 | 57 | 5 | 7.0 | 10.0 | 0.00 | 0.00 | 0.00 | 45 | 1023.0 |
| 20260509084006 | 57 | 356 | 5.0 | 10.0 | 0.00 | 0.00 | 0.00 | 46 | 1023.0 |
| 20260509083504 | 57 | 355 | 4.0 | 10.0 | 0.00 | 0.00 | 0.00 | 47 | 1023.0 |
| 20260509083006 | 57 | 356 | 6.0 | 11.0 | 0.00 | 0.00 | 0.00 | 46 | 1023.0 |
| 20260509082006 | 57 | 56 | 4.0 | 8.0 | 0.00 | 0.00 | 0.00 | 46 | 1023.0 |
| 20260509081503 | 57 | 41 | 3.0 | 8.0 | 0.00 | 0.00 | 0.00 | 46 | 1023.0 |
| 20260509081005 | 57 | 69 | 2.0 | 7.0 | 0.00 | 0.00 | 0.00 | 46 | 1023.0 |
| 20260509080504 | 57 | 43 | 2.0 | 6.0 | 0.00 | 0.00 | 0.00 | 46 | 1023.0 |
| 20260509080007 | 56 | 9 | 3.0 | 7.0 | 0.00 | 0.00 | 0.00 | 45 | 1023.0 |
| 20260509075503 | 56 | 25 | 5.0 | 8.0 | 0.00 | 0.00 | 0.00 | 46 | 1023.0 |
| 20260509075006 | 56 | 43 | 4.0 | 8.0 | 0.00 | 0.00 | 0.00 | 46 | 1023.0 |
| 20260509074504 | 56 | 89 | 4.0 | 8.0 | 0.00 | 0.00 | 0.00 | 46 | 1023.0 |
| 20260509074006 | 56 | 52 | 4.0 | 8.0 | 0.00 | 0.00 | 0.00 | 47 | 1023.0 |
| 20260509073503 | 55 | 5 | 3.0 | 6.0 | 0.00 | 0.00 | 0.00 | 45 | 1023.0 |
| 20260509073005 | 56 | 75 | 3.0 | 7.0 | 0.00 | 0.00 | 0.00 | 44 | 1023.0 |
| 20260509072504 | 56 | 122 | 2.0 | 7.0 | 0.00 | 0.00 | 0.00 | 46 | 1023.0 |
| 20260509072004 | 56 | 130 | 2.0 | 7.0 | 0.00 | 0.00 | 0.00 | 48 | 1023.0 |
| 20260509071005 | 56 | 77 | 4.0 | 7.0 | 0.00 | 0.00 | 0.00 | 47 | 1024.0 |
| 20260509070503 | 55 | 66 | 4.0 | 6.0 | 0.00 | 0.00 | 0.00 | 46 | 1024.0 |
| 20260509070006 | 55 | 72 | 4.0 | 6.0 | 0.00 | 0.00 | 0.00 | 49 | 1024.0 |
| 20260509065504 | 55 | 82 | 2.0 | 5.0 | 0.00 | 0.00 | 0.00 | 50 | 1023.0 |
| 20260509065005 | 54 | 102 | 3.0 | 6.0 | 0.00 | 0.00 | 0.00 | 51 | 1023.0 |
| 20260509064503 | 54 | 106 | 3.0 | 7.0 | 0.00 | 0.00 | 0.00 | 53 | 1023.0 |
| 20260509064005 | 53 | 92 | 3.0 | 7.0 | 0.00 | 0.00 | 0.00 | 52 | 1024.0 |
| 20260509063503 | 53 | 91 | 4.0 | 6.0 | 0.00 | 0.00 | 0.00 | 53 | 1024.0 |
| 20260509063006 | 52 | 91 | 4.0 | 8.0 | 0.00 | 0.00 | 0.00 | 55 | 1024.0 |
| 20260509062504 | 51 | 91 | 5.0 | 8.0 | 0.00 | 0.00 | 0.00 | 55 | 1023.0 |
| 20260509062005 | 51 | 97 | 6.0 | 8.0 | 0.00 | 0.00 | 0.00 | 55 | 1023.0 |
| 20260509061503 | 50 | 98 | 6.0 | 8.0 | 0.00 | 0.00 | 0.00 | 56 | 1023.0 |
| 20260509061005 | 49 | 98 | 6.0 | 8.0 | 0.00 | 0.00 | 0.00 | 58 | 1023.0 |
| 20260509060503 | 48 | 96 | 6.0 | 7.0 | 0.00 | 0.00 | 0.00 | 59 | 1023.0 |
| 20260509060005 | 47 | 91 | 6.0 | 7.0 | 0.00 | 0.00 | 0.00 | 60 | 1023.0 |
| 20260509055503 | 46 | 89 | 5.0 | 7.0 | 0.00 | 0.00 | 0.00 | 62 | 1024.0 |
| 20260509055005 | 45 | 89 | 6.0 | 8.0 | 0.00 | 0.00 | 0.00 | 62 | 1024.0 |
| 20260509054504 | 44 | 90 | 6.0 | 8.0 | 0.00 | 0.00 | 0.00 | 63 | 1024.0 |
| 20260509054004 | 43 | 92 | 6.0 | 8.0 | 0.00 | 0.00 | 0.00 | 64 | 1023.0 |
| 20260509053503 | 43 | 93 | 7.0 | 8.0 | 0.00 | 0.00 | 0.00 | 64 | 1023.0 |
| 20260509053006 | 42 | 91 | 7.0 | 8.0 | 0.00 | 0.00 | 0.00 | 64 | 1023.0 |
| 20260509052006 | 42 | 99 | 7.0 | 10.0 | 0.00 | 0.00 | 0.00 | 65 | 1023.0 |
| 20260509051503 | 41 | 99 | 7.0 | 10.0 | 0.00 | 0.00 | 0.00 | 65 | 1023.0 |
| 20260509051006 | 41 | 94 | 8.0 | 10.0 | 0.00 | 0.00 | 0.00 | 65 | 1023.0 |
| 20260509050503 | 40 | 94 | 7.0 | 9.0 | 0.00 | 0.00 | 0.00 | 65 | 1023.0 |
| 20260509050006 | 40 | 96 | 7.0 | 9.0 | 0.00 | 0.00 | 0.00 | 66 | 1023.0 |
| 20260509045503 | 40 | 99 | 8.0 | 10.0 | 0.00 | 0.00 | 0.00 | 67 | 1023.0 |
| 20260509045006 | 40 | 103 | 8.0 | 10.0 | 0.00 | 0.00 | 0.00 | 67 | 1023.0 |
| 20260509044503 | 39 | 104 | 7.0 | 10.0 | 0.00 | 0.00 | 0.00 | 67 | 1023.0 |
| 20260509044005 | 40 | 97 | 7.0 | 8.0 | 0.00 | 0.00 | 0.00 | 68 | 1023.0 |
| 20260509043503 | 39 | 98 | 7.0 | 10.0 | 0.00 | 0.00 | 0.00 | 68 | 1023.0 |
| 20260509043005 | 39 | 104 | 7.0 | 10.0 | 0.00 | 0.00 | 0.00 | 68 | 1023.0 |
| 20260509042504 | 39 | 100 | 8.0 | 10.0 | 0.00 | 0.00 | 0.00 | 68 | 1023.0 |
| 20260509042004 | 39 | 98 | 7.0 | 10.0 | 0.00 | 0.00 | 0.00 | 69 | 1023.0 |
| 20260509041503 | 39 | 102 | 7.0 | 8.0 | 0.00 | 0.00 | 0.00 | 69 | 1023.0 |
| 20260509041005 | 39 | 102 | 7.0 | 9.0 | 0.00 | 0.00 | 0.00 | 70 | 1023.0 |
| 20260509040503 | 38 | 102 | 7.0 | 9.0 | 0.00 | 0.00 | 0.00 | 70 | 1023.0 |
| 20260509040005 | 38 | 103 | 7.0 | 8.0 | 0.00 | 0.00 | 0.00 | 71 | 1023.0 |
| 20260509034503 | 38 | 104 | 7.0 | 8.0 | 0.00 | 0.00 | 0.00 | 73 | 1023.0 |
| 20260509034005 | 38 | 105 | 7.0 | 8.0 | 0.00 | 0.00 | 0.00 | 73 | 1024.0 |
| 20260509032504 | 37 | 105 | 8.0 | 9.0 | 0.00 | 0.00 | 0.00 | 74 | 1024.0 |
| 20260509032005 | 37 | 109 | 8.0 | 10.0 | 0.00 | 0.00 | 0.00 | 75 | 1024.0 |
| 20260509030005 | 37 | 110 | 8.0 | 10.0 | 0.00 | 0.00 | 0.00 | 77 | 1024.0 |
| 20260509025005 | 37 | 110 | 8.0 | 9.0 | 0.00 | 0.00 | 0.00 | 77 | 1024.0 |
| 20260509024005 | 37 | 99 | 7.0 | 9.0 | 0.00 | 0.00 | 0.00 | 78 | 1024.0 |
| 20260509023503 | 37 | 102 | 7.0 | 8.0 | 0.00 | 0.00 | 0.00 | 78 | 1024.0 |
| 20260509023005 | 37 | 107 | 7.0 | 8.0 | 0.00 | 0.00 | 0.00 | 78 | 1024.0 |
| 20260509022503 | 37 | 109 | 7.0 | 8.0 | 0.00 | 0.00 | 0.00 | 78 | 1024.0 |
| 20260509022005 | 37 | 110 | 7.0 | 8.0 | 0.00 | 0.00 | 0.00 | 78 | 1024.0 |
| 20260509021504 | 37 | 107 | 7.0 | 8.0 | 0.00 | 0.00 | 0.00 | 78 | 1024.0 |
| 20260509021005 | 37 | 98 | 6.0 | 8.0 | 0.00 | 0.00 | 0.00 | 77 | 1024.0 |
| 20260509020504 | 37 | 86 | 4.0 | 7.0 | 0.00 | 0.00 | 0.00 | 77 | 1024.0 |
| 20260509020006 | 37 | 73 | 3.0 | 5.0 | 0.00 | 0.00 | 0.00 | 77 | 1024.0 |
| 20260509015505 | 37 | 80 | 4.0 | 8.0 | 0.00 | 0.00 | 0.00 | 76 | 1025.0 |
| 20260509015006 | 38 | 101 | 5.0 | 10.0 | 0.00 | 0.00 | 0.00 | 76 | 1025.0 |
| 20260509014503 | 38 | 111 | 6.0 | 10.0 | 0.00 | 0.00 | 0.00 | 77 | 1025.0 |
| 20260509014005 | 38 | 104 | 4.0 | 8.0 | 0.00 | 0.00 | 0.00 | 76 | 1024.0 |
| 20260509013503 | 38 | 83 | 2.0 | 6.0 | 0.00 | 0.00 | 0.00 | 75 | 1024.0 |
| 20260509011503 | 38 | 108 | 3.0 | 6.0 | 0.00 | 0.00 | 0.00 | 75 | 1024.0 |
| 20260509011005 | 39 | 95 | 1.0 | 4.0 | 0.00 | 0.00 | 0.00 | 73 | 1025.0 |
| 20260509010503 | 39 | 112 | 0.0 | 4.0 | 0.00 | 0.00 | 0.00 | 71 | 1025.0 |
| 20260509010005 | 39 | 111 | 2.0 | 5.0 | 0.00 | 0.00 | 0.00 | 70 | 1025.0 |
| 20260509005503 | 39 | 110 | 4.0 | 5.0 | 0.00 | 0.00 | 0.00 | 70 | 1024.0 |
| 20260509005006 | 39 | 109 | 3.0 | 5.0 | 0.00 | 0.00 | 0.00 | 69 | 1024.0 |
| 20260509004503 | 40 | 112 | 0.0 | 5.0 | 0.00 | 0.00 | 0.00 | 69 | 1024.0 |
| 20260509004006 | 40 | 48 | 0.0 | 4.0 | 0.00 | 0.00 | 0.00 | 70 | 1024.0 |
| 20260509003503 | 40 | 48 | 0.0 | 4.0 | 0.00 | 0.00 | 0.00 | 70 | 1024.0 |
| 20260509003005 | 41 | 53 | 0.0 | 2.0 | 0.00 | 0.00 | 0.00 | 69 | 1024.0 |
| 20260509002503 | 42 | 121 | 0.0 | 3.0 | 0.00 | 0.00 | 0.00 | 67 | 1024.0 |
| 20260509002006 | 42 | 159 | 0.0 | 3.0 | 0.00 | 0.00 | 0.00 | 65 | 1024.0 |
| 20260509001004 | 44 | 173 | 5.0 | 9.0 | 0.00 | 0.00 | 0.00 | 65 | 1024.0 |
| 20260509000503 | 44 | 173 | 5.0 | 9.0 | 0.00 | 0.00 | 0.00 | 66 | 1024.0 |
| 20260509000004 | 44 | 173 | 5.0 | 9.0 | 0.00 | 0.00 | 0.00 | 66 | 1024.0 |
| 20260508235503 | 44 | 174 | 5.0 | 9.0 | 0.00 | 0.00 | 0.00 | 66 | 1025.0 |
| 20260508235005 | 45 | 176 | 4.0 | 8.0 | 0.00 | 0.00 | 0.00 | 65 | 1025.0 |
| 20260508234503 | 45 | 177 | 4.0 | 7.0 | 0.00 | 0.00 | 0.00 | 64 | 1025.0 |
| 20260508234005 | 45 | 177 | 5.0 | 8.0 | 0.00 | 0.00 | 0.00 | 62 | 1024.0 |
| 20260508233503 | 46 | 183 | 5.0 | 8.0 | 0.00 | 0.00 | 0.00 | 62 | 1024.0 |
| 20260508233005 | 46 | 184 | 6.0 | 8.0 | 0.00 | 0.00 | 0.00 | 62 | 1024.0 |
| 20260508232503 | 45 | 183 | 5.0 | 8.0 | 0.00 | 0.00 | 0.00 | 62 | 1024.0 |
| 20260508231503 | 45 | 183 | 5.0 | 10.0 | 0.00 | 0.00 | 0.00 | 63 | 1024.0 |
| 20260508231005 | 45 | 182 | 5.0 | 8.0 | 0.00 | 0.00 | 0.00 | 64 | 1024.0 |
| 20260508230005 | 46 | 175 | 5.0 | 7.0 | 0.00 | 0.00 | 0.00 | 64 | 1024.0 |
| 20260508225503 | 46 | 176 | 5.0 | 10.0 | 0.00 | 0.00 | 0.00 | 64 | 1024.0 |
| 20260508225004 | 46 | 178 | 4.0 | 10.0 | 0.00 | 0.00 | 0.00 | 64 | 1024.0 |
| 20260508224504 | 46 | 173 | 4.0 | 8.0 | 0.00 | 0.00 | 0.00 | 64 | 1024.0 |
| 20260508224004 | 46 | 175 | 5.0 | 8.0 | 0.00 | 0.00 | 0.00 | 63 | 1024.0 |
| 20260508223503 | 46 | 179 | 5.0 | 8.0 | 0.00 | 0.00 | 0.00 | 64 | 1024.0 |
| 20260508223005 | 46 | 181 | 5.0 | 8.0 | 0.00 | 0.00 | 0.00 | 63 | 1024.0 |
| 20260508222503 | 46 | 182 | 5.0 | 8.0 | 0.00 | 0.00 | 0.00 | 64 | 1024.0 |
| 20260508222006 | 46 | 183 | 5.0 | 8.0 | 0.00 | 0.00 | 0.00 | 64 | 1024.0 |
| 20260508221503 | 46 | 179 | 5.0 | 8.0 | 0.00 | 0.00 | 0.00 | 63 | 1024.0 |
| 20260508221005 | 46 | 179 | 5.0 | 8.0 | 0.00 | 0.00 | 0.00 | 64 | 1024.0 |
| 20260508220503 | 46 | 177 | 6.0 | 8.0 | 0.00 | 0.00 | 0.00 | 64 | 1024.0 |
| 20260508220005 | 46 | 173 | 6.0 | 10.0 | 0.00 | 0.00 | 0.00 | 64 | 1024.0 |
| 20260508215503 | 46 | 175 | 5.0 | 10.0 | 0.00 | 0.00 | 0.00 | 65 | 1024.0 |
| 20260508215006 | 46 | 183 | 4.0 | 8.0 | 0.00 | 0.00 | 0.00 | 65 | 1024.0 |
| 20260508214503 | 46 | 187 | 4.0 | 8.0 | 0.00 | 0.00 | 0.00 | 64 | 1024.0 |
| 20260508214005 | 45 | 181 | 5.0 | 8.0 | 0.00 | 0.00 | 0.00 | 63 | 1024.0 |
| 20260508213503 | 45 | 177 | 5.0 | 11.0 | 0.00 | 0.00 | 0.00 | 63 | 1024.0 |
| 20260508213005 | 45 | 179 | 5.0 | 11.0 | 0.00 | 0.00 | 0.00 | 61 | 1024.0 |
| 20260508212006 | 44 | 176 | 2.0 | 7.0 | 0.00 | 0.00 | 0.00 | 62 | 1024.0 |
| 20260508211503 | 44 | 158 | 1.0 | 4.0 | 0.00 | 0.00 | 0.00 | 60 | 1024.0 |
| 20260508211006 | 44 | 149 | 1.0 | 4.0 | 0.00 | 0.00 | 0.00 | 59 | 1024.0 |
| 20260508210503 | 44 | 113 | 1.0 | 4.0 | 0.00 | 0.00 | 0.00 | 59 | 1024.0 |
| 20260508210006 | 45 | 112 | 1.0 | 4.0 | 0.00 | 0.00 | 0.00 | 59 | 1024.0 |
| 20260508205503 | 45 | 112 | 0.0 | 4.0 | 0.00 | 0.00 | 0.00 | 59 | 1023.0 |